PWSweather.com
Personal Weather Stations
Station Observations
01979
Ravne Pri CerknemSI 5282

Ravne Pri CerknemSI 5282

Lat: 46.1213916, Lon: 13.952774299999987

Elevation: 2244.094488

Station Type: Techo Line WS2307

www.vremenska.postaja.andre.si/

High Low Average
Temperature 42.3°F5.7°C 21.7°F-5.7°C 29.8°F-1.2°C
Dew Point 18.5°F-7.5°C 8.4°F-13.1°C 12.6°F-10.8°C
Winds 14.7 mph 23.7 kmh Calm Calm 4.0 mph ESE6.4 kmh ESE
Wind Gusts 18.8 mph30.3 kmh -- 6.0 mph9.7 kmh
Humidity 55% 0% 33%
Pressure 30.63 in1037.3 mb 30.55 in1034.5 mb -
Precipitation 0.00 in0.0 mm - -
Hour Temp Dew Point Humidity Winds Wind Gusts Pressure Precip Precip Rate Daily Precip Total
12:00 AM 24.6°F-4.1°C 9.0°F-12.8°C 51% 6.7 mph SE10.8 kmh SE 8.5 mph13.7 kmh 30.61 in1036.6 mb 0.00 in0.0 mm 0.00 in0.0 mm 0.00 in0.0 mm
12:10 AM 24.4°F-4.2°C 8.9°F-12.8°C 51% 1.9 mph E3.1 kmh E 6.7 mph10.8 kmh 30.61 in1036.6 mb 0.00 in0.0 mm 0.00 in0.0 mm 0.00 in0.0 mm
12:20 AM 24.1°F-4.4°C 8.5°F-13.1°C 51% 1.4 mph ESE2.3 kmh ESE 4.7 mph7.6 kmh 30.62 in1036.9 mb 0.00 in0.0 mm 0.00 in0.0 mm 0.00 in0.0 mm
12:30 AM 23.9°F-4.5°C 8.4°F-13.1°C 51% 2.9 mph S4.7 kmh S 6.0 mph9.7 kmh 30.61 in1036.6 mb 0.00 in0.0 mm 0.00 in0.0 mm 0.00 in0.0 mm
12:40 AM 24.1°F-4.4°C 8.5°F-13.1°C 51% 0.5 mph E0.8 kmh E 6.0 mph9.7 kmh 30.61 in1036.6 mb 0.00 in0.0 mm 0.00 in0.0 mm 0.00 in0.0 mm
12:50 AM 23.9°F-4.5°C 8.8°F-12.9°C 52% 4.0 mph E6.4 kmh E 7.2 mph11.6 kmh 30.62 in1036.9 mb 0.00 in0.0 mm 0.00 in0.0 mm 0.00 in0.0 mm
01:00 AM 23.9°F-4.5°C 9.2°F-12.7°C 53% 4.8 mph E7.7 kmh E 10.1 mph16.3 kmh 30.62 in1036.9 mb 0.00 in0.0 mm 0.00 in0.0 mm 0.00 in0.0 mm
01:10 AM 23.9°F-4.5°C 9.2°F-12.7°C 53% 7.2 mph SE11.6 kmh SE 10.1 mph16.3 kmh 30.62 in1036.9 mb 0.00 in0.0 mm 0.00 in0.0 mm 0.00 in0.0 mm
01:20 AM 23.7°F-4.6°C 9.5°F-12.5°C 54% 9.2 mph ESE14.8 kmh ESE 13.0 mph20.9 kmh 30.61 in1036.6 mb 0.00 in0.0 mm 0.00 in0.0 mm 0.00 in0.0 mm
01:30 AM 23.9°F-4.5°C 9.6°F-12.4°C 54% 10.6 mph ESE17.1 kmh ESE 13.2 mph21.2 kmh 30.61 in1036.6 mb 0.00 in0.0 mm 0.00 in0.0 mm 0.00 in0.0 mm
01:40 AM 23.7°F-4.6°C 9.5°F-12.5°C 54% 14.7 mph ESE23.7 kmh ESE 18.8 mph30.3 kmh 30.60 in1036.2 mb 0.00 in0.0 mm 0.00 in0.0 mm 0.00 in0.0 mm
01:50 AM 23.5°F-4.7°C 9.3°F-12.6°C 54% 11.6 mph E18.7 kmh E 13.2 mph21.2 kmh 30.61 in1036.6 mb 0.00 in0.0 mm 0.00 in0.0 mm 0.00 in0.0 mm
02:00 AM 23.5°F-4.7°C 9.3°F-12.6°C 54% 9.6 mph E15.4 kmh E 14.5 mph23.3 kmh 30.61 in1036.6 mb 0.00 in0.0 mm 0.00 in0.0 mm 0.00 in0.0 mm
02:03 AM 23.7°F-4.6°C 9.3°F-12.6°C 0% 11.9 mph ESE19.2 kmh ESE 14.5 mph23.3 kmh 30.61 in1036.6 mb 0.00 in0.0 mm 0.00 in0.0 mm 0.00 in0.0 mm
02:10 AM 23.5°F-4.7°C 9.3°F-12.6°C 0% 9.7 mph ESE15.6 kmh ESE 14.5 mph23.3 kmh 30.61 in1036.6 mb 0.00 in0.0 mm 0.00 in0.0 mm 0.00 in0.0 mm
02:20 AM 23.4°F-4.8°C 9.3°F-12.6°C 0% 9.2 mph ESE14.8 kmh ESE 12.5 mph20.1 kmh 30.61 in1036.6 mb 0.00 in0.0 mm 0.00 in0.0 mm 0.00 in0.0 mm
02:30 AM 23.2°F-4.9°C 9.3°F-12.6°C 0% 7.2 mph ESE11.6 kmh ESE 12.5 mph20.1 kmh 30.61 in1036.6 mb 0.00 in0.0 mm 0.00 in0.0 mm 0.00 in0.0 mm
02:40 AM 23.2°F-4.9°C 9.3°F-12.6°C 0% 10.3 mph E16.6 kmh E 12.1 mph19.5 kmh 30.60 in1036.2 mb 0.00 in0.0 mm 0.00 in0.0 mm 0.00 in0.0 mm
02:50 AM 23.0°F-5.0°C 9.3°F-12.6°C 0% 8.5 mph E13.7 kmh E 11.4 mph18.3 kmh 30.61 in1036.6 mb 0.00 in0.0 mm 0.00 in0.0 mm 0.00 in0.0 mm
03:00 AM 23.0°F-5.0°C 9.3°F-12.6°C 0% 10.0 mph ESE16.1 kmh ESE 15.2 mph24.5 kmh 30.61 in1036.6 mb 0.00 in0.0 mm 0.00 in0.0 mm 0.00 in0.0 mm
03:10 AM 23.0°F-5.0°C 9.3°F-12.6°C 0% 11.0 mph E17.7 kmh E 17.0 mph27.4 kmh 30.61 in1036.6 mb 0.00 in0.0 mm 0.00 in0.0 mm 0.00 in0.0 mm
03:20 AM 22.8°F-5.1°C 9.3°F-12.6°C 0% 12.8 mph E20.6 kmh E 14.8 mph23.8 kmh 30.61 in1036.6 mb 0.00 in0.0 mm 0.00 in0.0 mm 0.00 in0.0 mm
03:30 AM 22.8°F-5.1°C 9.3°F-12.6°C 0% 11.2 mph E18.0 kmh E 14.8 mph23.8 kmh 30.60 in1036.2 mb 0.00 in0.0 mm 0.00 in0.0 mm 0.00 in0.0 mm
03:40 AM 22.8°F-5.1°C 9.3°F-12.6°C 0% 12.1 mph ESE19.5 kmh ESE 15.0 mph24.1 kmh 30.61 in1036.6 mb 0.00 in0.0 mm 0.00 in0.0 mm 0.00 in0.0 mm
03:50 AM 23.0°F-5.0°C 9.3°F-12.6°C 0% 11.7 mph E18.8 kmh E 13.4 mph21.6 kmh 30.61 in1036.6 mb 0.00 in0.0 mm 0.00 in0.0 mm 0.00 in0.0 mm
04:00 AM 22.8°F-5.1°C 9.3°F-12.6°C 0% 9.2 mph E14.8 kmh E 13.2 mph21.2 kmh 30.61 in1036.6 mb 0.00 in0.0 mm 0.00 in0.0 mm 0.00 in0.0 mm
04:10 AM 22.8°F-5.1°C 9.3°F-12.6°C 0% 10.9 mph E17.5 kmh E 13.6 mph21.9 kmh 30.61 in1036.6 mb 0.00 in0.0 mm 0.00 in0.0 mm 0.00 in0.0 mm
04:20 AM 22.8°F-5.1°C 9.3°F-12.6°C 0% 11.6 mph ESE18.7 kmh ESE 17.0 mph27.4 kmh 30.61 in1036.6 mb 0.00 in0.0 mm 0.00 in0.0 mm 0.00 in0.0 mm
04:30 AM 22.8°F-5.1°C 9.3°F-12.6°C 0% 8.2 mph E13.2 kmh E 9.6 mph15.4 kmh 30.61 in1036.6 mb 0.00 in0.0 mm 0.00 in0.0 mm 0.00 in0.0 mm
04:40 AM 22.8°F-5.1°C 9.3°F-12.6°C 0% 9.3 mph ESE15.0 kmh ESE 10.7 mph17.2 kmh 30.61 in1036.6 mb 0.00 in0.0 mm 0.00 in0.0 mm 0.00 in0.0 mm
04:50 AM 22.8°F-5.1°C 9.3°F-12.6°C 0% 11.0 mph ESE17.7 kmh ESE 16.1 mph25.9 kmh 30.61 in1036.6 mb 0.00 in0.0 mm 0.00 in0.0 mm 0.00 in0.0 mm
05:00 AM 22.8°F-5.1°C 9.3°F-12.6°C 0% 8.6 mph E13.8 kmh E 16.1 mph25.9 kmh 30.61 in1036.6 mb 0.00 in0.0 mm 0.00 in0.0 mm 0.00 in0.0 mm
05:10 AM 22.6°F-5.2°C 9.3°F-12.6°C 0% 7.7 mph SE12.4 kmh SE 15.9 mph25.6 kmh 30.61 in1036.6 mb 0.00 in0.0 mm 0.00 in0.0 mm 0.00 in0.0 mm
05:20 AM 22.6°F-5.2°C 9.3°F-12.6°C 0% 6.7 mph ESE10.8 kmh ESE 11.6 mph18.7 kmh 30.61 in1036.6 mb 0.00 in0.0 mm 0.00 in0.0 mm 0.00 in0.0 mm
05:30 AM 22.8°F-5.1°C 9.3°F-12.6°C 0% 6.3 mph ESE10.1 kmh ESE 11.6 mph18.7 kmh 30.61 in1036.6 mb 0.00 in0.0 mm 0.00 in0.0 mm 0.00 in0.0 mm
05:40 AM 22.8°F-5.1°C 9.3°F-12.6°C 0% 10.7 mph ESE17.2 kmh ESE 15.2 mph24.5 kmh 30.62 in1036.9 mb 0.00 in0.0 mm 0.00 in0.0 mm 0.00 in0.0 mm
05:50 AM 22.8°F-5.1°C 9.3°F-12.6°C 0% 10.1 mph ESE16.3 kmh ESE 13.0 mph20.9 kmh 30.62 in1036.9 mb 0.00 in0.0 mm 0.00 in0.0 mm 0.00 in0.0 mm
06:00 AM 22.6°F-5.2°C 9.3°F-12.6°C 0% 9.6 mph ESE15.4 kmh ESE 12.8 mph20.6 kmh 30.62 in1036.9 mb 0.00 in0.0 mm 0.00 in0.0 mm 0.00 in0.0 mm
06:10 AM 22.6°F-5.2°C 9.3°F-12.6°C 0% 10.9 mph ESE17.5 kmh ESE 14.1 mph22.7 kmh 30.61 in1036.6 mb 0.00 in0.0 mm 0.00 in0.0 mm 0.00 in0.0 mm
06:20 AM 22.6°F-5.2°C 9.3°F-12.6°C 0% 8.3 mph E13.4 kmh E 9.4 mph15.1 kmh 30.62 in1036.9 mb 0.00 in0.0 mm 0.00 in0.0 mm 0.00 in0.0 mm
06:30 AM 22.5°F-5.3°C 9.3°F-12.6°C 0% 2.7 mph E4.3 kmh E 9.2 mph14.8 kmh 30.62 in1036.9 mb 0.00 in0.0 mm 0.00 in0.0 mm 0.00 in0.0 mm
06:40 AM 22.3°F-5.4°C 9.3°F-12.6°C 0% 2.7 mph E4.3 kmh E 8.5 mph13.7 kmh 30.61 in1036.6 mb 0.00 in0.0 mm 0.00 in0.0 mm 0.00 in0.0 mm
06:50 AM 22.3°F-5.4°C 9.3°F-12.6°C 0% 2.6 mph E4.2 kmh E 6.5 mph10.5 kmh 30.62 in1036.9 mb 0.00 in0.0 mm 0.00 in0.0 mm 0.00 in0.0 mm
07:00 AM 21.9°F-5.6°C 9.3°F-12.6°C 0% 2.7 mph SE4.3 kmh SE 6.5 mph10.5 kmh 30.62 in1036.9 mb 0.00 in0.0 mm 0.00 in0.0 mm 0.00 in0.0 mm
07:10 AM 21.9°F-5.6°C 9.3°F-12.6°C 0% 0.4 mph ESE0.6 kmh ESE 1.8 mph2.9 kmh 30.62 in1036.9 mb 0.00 in0.0 mm 0.00 in0.0 mm 0.00 in0.0 mm
07:20 AM 21.9°F-5.6°C 9.3°F-12.6°C 0% Calm Calm -- 30.62 in1036.9 mb 0.00 in0.0 mm 0.00 in0.0 mm 0.00 in0.0 mm
07:30 AM 21.7°F-5.7°C 9.3°F-12.6°C 0% Calm Calm -- 30.63 in1037.3 mb 0.00 in0.0 mm 0.00 in0.0 mm 0.00 in0.0 mm
07:40 AM 21.7°F-5.7°C 9.3°F-12.6°C 0% Calm Calm -- 30.63 in1037.3 mb 0.00 in0.0 mm 0.00 in0.0 mm 0.00 in0.0 mm
07:50 AM 21.7°F-5.7°C 9.3°F-12.6°C 0% Calm Calm -- 30.63 in1037.3 mb 0.00 in0.0 mm 0.00 in0.0 mm 0.00 in0.0 mm
08:00 AM 21.9°F-5.6°C 9.3°F-12.6°C 0% Calm Calm -- 30.63 in1037.3 mb 0.00 in0.0 mm 0.00 in0.0 mm 0.00 in0.0 mm
08:10 AM 22.6°F-5.2°C 9.3°F-12.6°C 0% Calm Calm -- 30.63 in1037.3 mb 0.00 in0.0 mm 0.00 in0.0 mm 0.00 in0.0 mm
08:20 AM 23.2°F-4.9°C 9.3°F-12.6°C 0% 0.3 mph ENE0.5 kmh ENE 5.1 mph8.2 kmh 30.62 in1036.9 mb 0.00 in0.0 mm 0.00 in0.0 mm 0.00 in0.0 mm
08:30 AM 23.9°F-4.5°C 9.3°F-12.6°C 0% 0.9 mph ENE1.4 kmh ENE 5.1 mph8.2 kmh 30.62 in1036.9 mb 0.00 in0.0 mm 0.00 in0.0 mm 0.00 in0.0 mm
08:40 AM 25.9°F-3.4°C 11.9°F-11.2°C 55% 0.6 mph SSW1.0 kmh SSW 3.8 mph6.1 kmh 30.62 in1036.9 mb 0.00 in0.0 mm 0.00 in0.0 mm 0.00 in0.0 mm
08:50 AM 26.4°F-3.1°C 12.0°F-11.1°C 54% 2.7 mph S4.3 kmh S 7.2 mph11.6 kmh 30.62 in1036.9 mb 0.00 in0.0 mm 0.00 in0.0 mm 0.00 in0.0 mm
09:00 AM 26.8°F-2.9°C 11.9°F-11.2°C 53% 1.0 mph S1.6 kmh S 3.1 mph5.0 kmh 30.62 in1036.9 mb 0.00 in0.0 mm 0.00 in0.0 mm 0.00 in0.0 mm
09:10 AM 27.7°F-2.4°C 12.3°F-10.9°C 52% 1.7 mph S2.7 kmh S 5.6 mph9.0 kmh 30.62 in1036.9 mb 0.00 in0.0 mm 0.00 in0.0 mm 0.00 in0.0 mm
09:20 AM 28.0°F-2.2°C 11.8°F-11.2°C 50% 2.1 mph SSW3.4 kmh SSW 8.9 mph14.3 kmh 30.61 in1036.6 mb 0.00 in0.0 mm 0.00 in0.0 mm 0.00 in0.0 mm
09:30 AM 27.7°F-2.4°C 11.9°F-11.2°C 51% 2.0 mph S3.2 kmh S 8.9 mph14.3 kmh 30.61 in1036.6 mb 0.00 in0.0 mm 0.00 in0.0 mm 0.00 in0.0 mm
09:40 AM 28.9°F-1.7°C 13.1°F-10.5°C 51% 0.3 mph S0.5 kmh S 1.6 mph2.6 kmh 30.61 in1036.6 mb 0.00 in0.0 mm 0.00 in0.0 mm 0.00 in0.0 mm
09:50 AM 29.1°F-1.6°C 12.3°F-10.9°C 49% 2.4 mph S3.9 kmh S 6.9 mph11.1 kmh 30.61 in1036.6 mb 0.00 in0.0 mm 0.00 in0.0 mm 0.00 in0.0 mm
10:00 AM 28.0°F-2.2°C 11.8°F-11.2°C 50% 0.3 mph SSW0.5 kmh SSW 2.0 mph3.2 kmh 30.61 in1036.6 mb 0.00 in0.0 mm 0.00 in0.0 mm 0.00 in0.0 mm
10:10 AM 28.0°F-2.2°C 12.2°F-11.0°C 51% 2.3 mph S3.7 kmh S 6.3 mph10.1 kmh 30.61 in1036.6 mb 0.00 in0.0 mm 0.00 in0.0 mm 0.00 in0.0 mm
10:20 AM 29.1°F-1.6°C 12.8°F-10.7°C 50% 4.5 mph S7.2 kmh S 7.8 mph12.6 kmh 30.61 in1036.6 mb 0.00 in0.0 mm 0.00 in0.0 mm 0.00 in0.0 mm
10:30 AM 29.8°F-1.2°C 13.0°F-10.6°C 49% 3.7 mph S6.0 kmh S 6.0 mph9.7 kmh 30.61 in1036.6 mb 0.00 in0.0 mm 0.00 in0.0 mm 0.00 in0.0 mm
10:40 AM 30.2°F-1.0°C 12.8°F-10.7°C 48% 1.3 mph S2.1 kmh S 4.5 mph7.2 kmh 30.61 in1036.6 mb 0.00 in0.0 mm 0.00 in0.0 mm 0.00 in0.0 mm
10:50 AM 30.7°F-0.7°C 13.3°F-10.4°C 48% 1.5 mph SSW2.4 kmh SSW 7.8 mph12.6 kmh 30.62 in1036.9 mb 0.00 in0.0 mm 0.00 in0.0 mm 0.00 in0.0 mm
11:00 AM 30.9°F-0.6°C 13.0°F-10.6°C 47% Calm Calm -- 30.62 in1036.9 mb 0.00 in0.0 mm 0.00 in0.0 mm 0.00 in0.0 mm
11:10 AM 31.8°F-0.1°C 13.9°F-10.1°C 47% 3.9 mph WSW6.3 kmh WSW 7.2 mph11.6 kmh 30.62 in1036.9 mb 0.00 in0.0 mm 0.00 in0.0 mm 0.00 in0.0 mm
11:20 AM 31.3°F-0.4°C 13.4°F-10.3°C 47% 4.7 mph SSW7.6 kmh SSW 9.6 mph15.4 kmh 30.62 in1036.9 mb 0.00 in0.0 mm 0.00 in0.0 mm 0.00 in0.0 mm
11:30 AM 31.6°F-0.2°C 14.2°F-9.9°C 48% Calm Calm -- 30.62 in1036.9 mb 0.00 in0.0 mm 0.00 in0.0 mm 0.00 in0.0 mm
11:40 AM 33.3°F0.7°C 14.7°F-9.6°C 46% 0.4 mph S0.6 kmh S 1.8 mph2.9 kmh 30.62 in1036.9 mb 0.00 in0.0 mm 0.00 in0.0 mm 0.00 in0.0 mm
11:50 AM 32.2°F0.1°C 13.2°F-10.4°C 45% 7.2 mph ESE11.6 kmh ESE 14.1 mph22.7 kmh 30.62 in1036.9 mb 0.00 in0.0 mm 0.00 in0.0 mm 0.00 in0.0 mm
12:00 PM 35.4°F1.9°C 16.2°F-8.8°C 45% 2.5 mph S4.0 kmh S 7.2 mph11.6 kmh 30.61 in1036.6 mb 0.00 in0.0 mm 0.00 in0.0 mm 0.00 in0.0 mm
12:10 PM 36.0°F2.2°C 16.7°F-8.5°C 45% 4.4 mph S7.1 kmh S 6.7 mph10.8 kmh 30.61 in1036.6 mb 0.00 in0.0 mm 0.00 in0.0 mm 0.00 in0.0 mm
12:20 PM 36.3°F2.4°C 17.0°F-8.3°C 45% 5.0 mph SSE8.0 kmh SSE 8.1 mph13.0 kmh 30.61 in1036.6 mb 0.00 in0.0 mm 0.00 in0.0 mm 0.00 in0.0 mm
12:30 PM 35.8°F2.1°C 16.0°F-8.9°C 44% 2.8 mph E4.5 kmh E 6.5 mph10.5 kmh 30.61 in1036.6 mb 0.00 in0.0 mm 0.00 in0.0 mm 0.00 in0.0 mm
12:40 PM 37.4°F3.0°C 17.4°F-8.1°C 44% 2.5 mph S4.0 kmh S 5.6 mph9.0 kmh 30.61 in1036.6 mb 0.00 in0.0 mm 0.00 in0.0 mm 0.00 in0.0 mm
12:50 PM 38.1°F3.4°C 17.0°F-8.3°C 42% 4.8 mph S7.7 kmh S 8.1 mph13.0 kmh 30.61 in1036.6 mb 0.00 in0.0 mm 0.00 in0.0 mm 0.00 in0.0 mm
01:00 PM 38.1°F3.4°C 17.0°F-8.3°C 42% 3.2 mph ESE5.1 kmh ESE 8.3 mph13.4 kmh 30.60 in1036.2 mb 0.00 in0.0 mm 0.00 in0.0 mm 0.00 in0.0 mm
01:10 PM 38.1°F3.4°C 17.0°F-8.3°C 42% Calm Calm -- 30.60 in1036.2 mb 0.00 in0.0 mm 0.00 in0.0 mm 0.00 in0.0 mm
01:20 PM 36.1°F2.3°C 15.2°F-9.3°C 42% 1.5 mph E2.4 kmh E 5.6 mph9.0 kmh 30.60 in1036.2 mb 0.00 in0.0 mm 0.00 in0.0 mm 0.00 in0.0 mm
01:30 PM 36.5°F2.5°C 16.1°F-8.8°C 43% 1.1 mph E1.8 kmh E 3.4 mph5.5 kmh 30.59 in1035.9 mb 0.00 in0.0 mm 0.00 in0.0 mm 0.00 in0.0 mm
01:40 PM 36.1°F2.3°C 15.8°F-9.0°C 43% 0.9 mph ESE1.4 kmh ESE 4.0 mph6.4 kmh 30.59 in1035.9 mb 0.00 in0.0 mm 0.00 in0.0 mm 0.00 in0.0 mm
01:50 PM 36.5°F2.5°C 16.1°F-8.8°C 43% 1.9 mph E3.1 kmh E 5.1 mph8.2 kmh 30.59 in1035.9 mb 0.00 in0.0 mm 0.00 in0.0 mm 0.00 in0.0 mm
02:00 PM 36.9°F2.7°C 15.9°F-8.9°C 42% 1.3 mph E2.1 kmh E 5.1 mph8.2 kmh 30.58 in1035.6 mb 0.00 in0.0 mm 0.00 in0.0 mm 0.00 in0.0 mm
02:10 PM 36.7°F2.6°C 15.7°F-9.1°C 42% 4.3 mph ESE6.9 kmh ESE 6.7 mph10.8 kmh 30.58 in1035.6 mb 0.00 in0.0 mm 0.00 in0.0 mm 0.00 in0.0 mm
02:20 PM 37.6°F3.1°C 16.5°F-8.6°C 42% 2.3 mph SE3.7 kmh SE 6.9 mph11.1 kmh 30.58 in1035.6 mb 0.00 in0.0 mm 0.00 in0.0 mm 0.00 in0.0 mm
02:30 PM 37.9°F3.3°C 16.3°F-8.7°C 41% 2.8 mph E4.5 kmh E 6.5 mph10.5 kmh 30.57 in1035.2 mb 0.00 in0.0 mm 0.00 in0.0 mm 0.00 in0.0 mm
02:40 PM 39.9°F4.4°C 17.5°F-8.1°C 40% 4.8 mph SE7.7 kmh SE 5.8 mph9.3 kmh 30.57 in1035.2 mb 0.00 in0.0 mm 0.00 in0.0 mm 0.00 in0.0 mm
02:50 PM 41.0°F5.0°C 18.5°F-7.5°C 40% 1.7 mph SSE2.7 kmh SSE 5.4 mph8.7 kmh 30.57 in1035.2 mb 0.00 in0.0 mm 0.00 in0.0 mm 0.00 in0.0 mm
03:00 PM 40.5°F4.7°C 16.8°F-8.4°C 38% 0.4 mph ESE0.6 kmh ESE 1.8 mph2.9 kmh 30.56 in1034.9 mb 0.00 in0.0 mm 0.00 in0.0 mm 0.00 in0.0 mm
03:10 PM 40.8°F4.9°C 17.7°F-7.9°C 39% 1.8 mph ESE2.9 kmh ESE 4.3 mph6.9 kmh 30.56 in1034.9 mb 0.00 in0.0 mm 0.00 in0.0 mm 0.00 in0.0 mm
03:20 PM 42.1°F5.6°C 18.3°F-7.6°C 38% 1.8 mph E2.9 kmh E 6.5 mph10.5 kmh 30.56 in1034.9 mb 0.00 in0.0 mm 0.00 in0.0 mm 0.00 in0.0 mm
03:30 PM 41.5°F5.3°C 18.4°F-7.6°C 39% 2.8 mph NE4.5 kmh NE 6.5 mph10.5 kmh 30.56 in1034.9 mb 0.00 in0.0 mm 0.00 in0.0 mm 0.00 in0.0 mm
03:40 PM 42.3°F5.7°C 18.4°F-7.6°C 38% 1.0 mph SSW1.6 kmh SSW 3.4 mph5.5 kmh 30.56 in1034.9 mb 0.00 in0.0 mm 0.00 in0.0 mm 0.00 in0.0 mm
03:50 PM 41.5°F5.3°C 18.4°F-7.6°C 39% 0.1 mph SSW0.2 kmh SSW 3.4 mph5.5 kmh 30.56 in1034.9 mb 0.00 in0.0 mm 0.00 in0.0 mm 0.00 in0.0 mm
04:00 PM 40.5°F4.7°C 18.0°F-7.8°C 40% Calm Calm -- 30.56 in1034.9 mb 0.00 in0.0 mm 0.00 in0.0 mm 0.00 in0.0 mm
04:10 PM 40.5°F4.7°C 18.0°F-7.8°C 40% Calm Calm -- 30.55 in1034.5 mb 0.00 in0.0 mm 0.00 in0.0 mm 0.00 in0.0 mm
04:20 PM 40.5°F4.7°C 18.0°F-7.8°C 40% Calm Calm -- 30.56 in1034.9 mb 0.00 in0.0 mm 0.00 in0.0 mm 0.00 in0.0 mm
04:30 PM 39.7°F4.3°C 16.8°F-8.4°C 39% 2.3 mph SSW3.7 kmh SSW 6.5 mph10.5 kmh 30.56 in1034.9 mb 0.00 in0.0 mm 0.00 in0.0 mm 0.00 in0.0 mm
04:40 PM 38.5°F3.6°C 16.2°F-8.8°C 40% 2.8 mph SSW4.5 kmh SSW 6.5 mph10.5 kmh 30.56 in1034.9 mb 0.00 in0.0 mm 0.00 in0.0 mm 0.00 in0.0 mm
04:50 PM 37.2°F2.9°C 15.6°F-9.1°C 41% Calm Calm -- 30.56 in1034.9 mb 0.00 in0.0 mm 0.00 in0.0 mm 0.00 in0.0 mm
05:00 PM 36.7°F2.6°C 15.7°F-9.1°C 42% Calm Calm -- 30.56 in1034.9 mb 0.00 in0.0 mm 0.00 in0.0 mm 0.00 in0.0 mm
05:10 PM 36.3°F2.4°C 15.9°F-8.9°C 43% 1.3 mph NW2.1 kmh NW 3.4 mph5.5 kmh 30.56 in1034.9 mb 0.00 in0.0 mm 0.00 in0.0 mm 0.00 in0.0 mm
05:20 PM 35.8°F2.1°C 15.4°F-9.2°C 43% Calm Calm -- 30.56 in1034.9 mb 0.00 in0.0 mm 0.00 in0.0 mm 0.00 in0.0 mm
05:30 PM 35.4°F1.9°C 15.6°F-9.1°C 44% Calm Calm -- 30.57 in1035.2 mb 0.00 in0.0 mm 0.00 in0.0 mm 0.00 in0.0 mm
05:40 PM 35.2°F1.8°C 15.5°F-9.2°C 44% 0.7 mph E1.1 kmh E 3.4 mph5.5 kmh 30.56 in1034.9 mb 0.00 in0.0 mm 0.00 in0.0 mm 0.00 in0.0 mm
05:50 PM 34.9°F1.6°C 15.1°F-9.4°C 44% Calm Calm -- 30.57 in1035.2 mb 0.00 in0.0 mm 0.00 in0.0 mm 0.00 in0.0 mm
06:00 PM 34.7°F1.5°C 15.5°F-9.2°C 45% Calm Calm -- 30.57 in1035.2 mb 0.00 in0.0 mm 0.00 in0.0 mm 0.00 in0.0 mm
06:10 PM 34.3°F1.3°C 15.2°F-9.3°C 45% Calm Calm -- 30.57 in1035.2 mb 0.00 in0.0 mm 0.00 in0.0 mm 0.00 in0.0 mm
06:20 PM 34.3°F1.3°C 15.2°F-9.3°C 45% 0.5 mph ENE0.8 kmh ENE 2.2 mph3.5 kmh 30.57 in1035.2 mb 0.00 in0.0 mm 0.00 in0.0 mm 0.00 in0.0 mm
06:30 PM 34.3°F1.3°C 15.2°F-9.3°C 45% 0.5 mph E0.8 kmh E 2.2 mph3.5 kmh 30.58 in1035.6 mb 0.00 in0.0 mm 0.00 in0.0 mm 0.00 in0.0 mm
06:40 PM 33.6°F0.9°C 15.0°F-9.4°C 46% Calm Calm -- 30.57 in1035.2 mb 0.00 in0.0 mm 0.00 in0.0 mm 0.00 in0.0 mm
06:50 PM 33.3°F0.7°C 14.2°F-9.9°C 45% Calm Calm -- 30.58 in1035.6 mb 0.00 in0.0 mm 0.00 in0.0 mm 0.00 in0.0 mm
07:00 PM 32.9°F0.5°C 14.4°F-9.8°C 46% 0.7 mph SW1.1 kmh SW 3.4 mph5.5 kmh 30.58 in1035.6 mb 0.00 in0.0 mm 0.00 in0.0 mm 0.00 in0.0 mm
07:10 PM 33.1°F0.6°C 14.5°F-9.7°C 46% 1.8 mph SE2.9 kmh SE 6.5 mph10.5 kmh 30.59 in1035.9 mb 0.00 in0.0 mm 0.00 in0.0 mm 0.00 in0.0 mm
07:20 PM 33.3°F0.7°C 15.2°F-9.3°C 47% 6.3 mph SE10.1 kmh SE 10.1 mph16.3 kmh 30.59 in1035.9 mb 0.00 in0.0 mm 0.00 in0.0 mm 0.00 in0.0 mm
07:30 PM 32.9°F0.5°C 14.4°F-9.8°C 46% 0.2 mph E0.3 kmh E 2.2 mph3.5 kmh 30.59 in1035.9 mb 0.00 in0.0 mm 0.00 in0.0 mm 0.00 in0.0 mm
07:40 PM 32.7°F0.4°C 14.2°F-9.9°C 46% 1.8 mph E2.9 kmh E 4.9 mph7.9 kmh 30.59 in1035.9 mb 0.00 in0.0 mm 0.00 in0.0 mm 0.00 in0.0 mm
07:50 PM 32.5°F0.3°C 14.0°F-10.0°C 46% 0.4 mph ESE0.6 kmh ESE 1.8 mph2.9 kmh 30.59 in1035.9 mb 0.00 in0.0 mm 0.00 in0.0 mm 0.00 in0.0 mm
08:00 PM 32.5°F0.3°C 14.0°F-10.0°C 46% 2.9 mph S4.7 kmh S 6.3 mph10.1 kmh 30.59 in1035.9 mb 0.00 in0.0 mm 0.00 in0.0 mm 0.00 in0.0 mm
08:10 PM 32.2°F0.1°C 13.7°F-10.2°C 46% 2.5 mph SE4.0 kmh SE 5.1 mph8.2 kmh 30.59 in1035.9 mb 0.00 in0.0 mm 0.00 in0.0 mm 0.00 in0.0 mm
08:20 PM 32.2°F0.1°C 13.7°F-10.2°C 46% 0.9 mph SSE1.4 kmh SSE 4.5 mph7.2 kmh 30.60 in1036.2 mb 0.00 in0.0 mm 0.00 in0.0 mm 0.00 in0.0 mm
08:30 PM 32.2°F0.1°C 13.7°F-10.2°C 46% 0.7 mph S1.1 kmh S 6.7 mph10.8 kmh 30.60 in1036.2 mb 0.00 in0.0 mm 0.00 in0.0 mm 0.00 in0.0 mm
08:40 PM 32.2°F0.1°C 13.7°F-10.2°C 46% 2.3 mph SSW3.7 kmh SSW 9.4 mph15.1 kmh 30.60 in1036.2 mb 0.00 in0.0 mm 0.00 in0.0 mm 0.00 in0.0 mm
08:50 PM 31.8°F-0.1°C 13.4°F-10.3°C 46% 3.0 mph S4.8 kmh S 9.4 mph15.1 kmh 30.60 in1036.2 mb 0.00 in0.0 mm 0.00 in0.0 mm 0.00 in0.0 mm
09:00 PM 31.8°F-0.1°C 13.4°F-10.3°C 46% 3.7 mph S6.0 kmh S 8.1 mph13.0 kmh 30.60 in1036.2 mb 0.00 in0.0 mm 0.00 in0.0 mm 0.00 in0.0 mm
09:10 PM 31.6°F-0.2°C 13.2°F-10.4°C 46% 2.4 mph S3.9 kmh S 7.6 mph12.2 kmh 30.59 in1035.9 mb 0.00 in0.0 mm 0.00 in0.0 mm 0.00 in0.0 mm
09:20 PM 31.5°F-0.3°C 13.0°F-10.6°C 46% 0.5 mph S0.8 kmh S 2.5 mph4.0 kmh 30.60 in1036.2 mb 0.00 in0.0 mm 0.00 in0.0 mm 0.00 in0.0 mm
09:30 PM 31.3°F-0.4°C 12.9°F-10.6°C 46% 0.8 mph S1.3 kmh S 3.1 mph5.0 kmh 30.60 in1036.2 mb 0.00 in0.0 mm 0.00 in0.0 mm 0.00 in0.0 mm
09:40 PM 31.3°F-0.4°C 12.9°F-10.6°C 46% Calm Calm -- 30.60 in1036.2 mb 0.00 in0.0 mm 0.00 in0.0 mm 0.00 in0.0 mm
09:50 PM 31.5°F-0.3°C 13.0°F-10.6°C 46% Calm Calm -- 30.60 in1036.2 mb 0.00 in0.0 mm 0.00 in0.0 mm 0.00 in0.0 mm
10:00 PM 31.1°F-0.5°C 12.7°F-10.7°C 46% Calm Calm -- 30.60 in1036.2 mb 0.00 in0.0 mm 0.00 in0.0 mm 0.00 in0.0 mm
10:10 PM 30.9°F-0.6°C 12.5°F-10.8°C 46% Calm Calm -- 30.61 in1036.6 mb 0.00 in0.0 mm 0.00 in0.0 mm 0.00 in0.0 mm
10:20 PM 30.7°F-0.7°C 12.4°F-10.9°C 46% 0.3 mph S0.5 kmh S 1.3 mph2.1 kmh 30.60 in1036.2 mb 0.00 in0.0 mm 0.00 in0.0 mm 0.00 in0.0 mm
10:30 PM 31.3°F-0.4°C 12.4°F-10.9°C 45% 5.0 mph SE8.0 kmh SE 8.3 mph13.4 kmh 30.61 in1036.6 mb 0.00 in0.0 mm 0.00 in0.0 mm 0.00 in0.0 mm
10:40 PM 30.9°F-0.6°C 12.0°F-11.1°C 45% 3.1 mph SE5.0 kmh SE 5.8 mph9.3 kmh 30.61 in1036.6 mb 0.00 in0.0 mm 0.00 in0.0 mm 0.00 in0.0 mm
10:50 PM 30.7°F-0.7°C 11.9°F-11.2°C 45% 4.4 mph SE7.1 kmh SE 9.4 mph15.1 kmh 30.61 in1036.6 mb 0.00 in0.0 mm 0.00 in0.0 mm 0.00 in0.0 mm
11:00 PM 30.6°F-0.8°C 11.7°F-11.3°C 45% 2.5 mph S4.0 kmh S 5.6 mph9.0 kmh 30.61 in1036.6 mb 0.00 in0.0 mm 0.00 in0.0 mm 0.00 in0.0 mm
11:10 PM 30.4°F-0.9°C 12.0°F-11.1°C 46% 3.7 mph S6.0 kmh S 8.1 mph13.0 kmh 30.60 in1036.2 mb 0.00 in0.0 mm 0.00 in0.0 mm 0.00 in0.0 mm
11:20 PM 30.0°F-1.1°C 11.7°F-11.3°C 46% Calm Calm -- 30.60 in1036.2 mb 0.00 in0.0 mm 0.00 in0.0 mm 0.00 in0.0 mm
11:30 PM 29.8°F-1.2°C 11.5°F-11.4°C 46% Calm Calm -- 30.60 in1036.2 mb 0.00 in0.0 mm 0.00 in0.0 mm 0.00 in0.0 mm
11:40 PM 30.0°F-1.1°C 11.7°F-11.3°C 46% Calm Calm -- 30.60 in1036.2 mb 0.00 in0.0 mm 0.00 in0.0 mm 0.00 in0.0 mm
11:50 PM 30.2°F-1.0°C 11.9°F-11.2°C 46% Calm Calm -- 30.60 in1036.2 mb 0.00 in0.0 mm 0.00 in0.0 mm 0.00 in0.0 mm